createdAt,value
2023-09-19T00:01:00.875Z,88.38
2023-09-19T00:02:05.978Z,87.81
2023-09-19T00:03:07.918Z,87.66
2023-09-19T00:04:11.043Z,87.54
2023-09-19T00:05:13.414Z,86.92
2023-09-19T00:06:15.629Z,86.78
2023-09-19T00:07:17.556Z,86.76
2023-09-19T00:08:23.442Z,86.71
2023-09-19T00:09:28.414Z,86.71
2023-09-19T00:10:32.260Z,86.31
2023-09-19T00:11:36.103Z,86.23
2023-09-19T00:12:37.751Z,86.68
2023-09-19T00:13:39.561Z,87.40
2023-09-19T00:14:41.463Z,88.34
2023-09-19T00:15:49.801Z,88.09
2023-09-19T00:16:52.341Z,87.39
2023-09-19T00:17:53.947Z,86.96
2023-09-19T00:18:56.251Z,86.62
2023-09-19T00:19:57.869Z,86.02
2023-09-19T00:21:00.121Z,85.84
2023-09-19T00:22:02.445Z,85.63
2023-09-19T00:23:10.578Z,85.97
2023-09-19T00:24:13.091Z,85.84
2023-09-19T00:25:16.777Z,85.79
2023-09-19T00:26:19.787Z,85.74
2023-09-19T00:27:21.383Z,85.93
2023-09-19T00:28:23.018Z,85.67
2023-09-19T00:29:24.727Z,84.87
2023-09-19T00:30:26.308Z,83.68
2023-09-19T00:31:27.971Z,82.42
2023-09-19T00:32:33.259Z,82.28
2023-09-19T00:33:35.661Z,82.16
2023-09-19T00:34:37.280Z,81.96
2023-09-19T00:35:38.904Z,82.08
2023-09-19T00:36:40.741Z,82.33
2023-09-19T00:37:43.410Z,82.01
2023-09-19T00:38:46.814Z,82.46
2023-09-19T00:39:48.388Z,82.14
2023-09-19T00:40:53.822Z,82.16
2023-09-19T00:41:55.893Z,81.95
2023-09-19T00:43:01.381Z,82.02
2023-09-19T00:44:05.091Z,81.63
2023-09-19T00:45:10.301Z,81.58
2023-09-19T00:46:12.021Z,81.05
2023-09-19T00:47:18.608Z,80.18
2023-09-19T00:48:22.206Z,80.12
2023-09-19T00:49:23.950Z,80.60
2023-09-19T00:50:28.081Z,80.34
2023-09-19T00:51:30.975Z,80.28
2023-09-19T00:52:33.425Z,80.46
2023-09-19T00:53:35.533Z,81.19
2023-09-19T00:54:37.385Z,81.91
2023-09-19T00:55:39.081Z,82.51
2023-09-19T00:56:41.875Z,83.10
2023-09-19T00:57:44.896Z,83.98
2023-09-19T00:58:47.542Z,85.06
2023-09-19T00:59:54.999Z,86.59
2023-09-19T01:00:57.113Z,86.75
2023-09-19T01:02:01.455Z,87.28
2023-09-19T01:03:04.104Z,87.67
2023-09-19T01:04:06.775Z,88.12
2023-09-19T01:05:08.642Z,87.75
2023-09-19T01:06:10.289Z,86.60
2023-09-19T01:07:12.356Z,85.73
2023-09-19T01:08:13.937Z,84.67
2023-09-19T01:09:15.512Z,84.47
2023-09-19T01:10:23.299Z,84.46
2023-09-19T01:11:42.330Z,84.35
2023-09-19T01:12:53.129Z,84.45
2023-09-19T01:14:16.412Z,84.49
2023-09-19T01:15:45.838Z,84.18
2023-09-19T01:17:23.389Z,83.67
2023-09-19T01:18:56.824Z,83.70
2023-09-19T01:20:21.917Z,83.54
2023-09-19T01:21:31.936Z,83.87
2023-09-19T01:22:48.302Z,83.49
2023-09-19T01:24:11.639Z,83.31
2023-09-19T01:25:25.285Z,83.09
2023-09-19T01:26:45.008Z,83.31
2023-09-19T01:28:11.676Z,83.05
2023-09-19T01:29:40.419Z,82.75
2023-09-19T01:30:45.129Z,82.44
2023-09-19T01:31:48.483Z,82.54
2023-09-19T01:32:53.726Z,83.64
2023-09-19T01:34:05.293Z,83.83
2023-09-19T01:35:07.376Z,84.82
2023-09-19T01:36:10.294Z,84.80
2023-09-19T01:37:11.954Z,84.79
2023-09-19T01:38:14.887Z,84.72
2023-09-19T01:39:16.808Z,84.52
2023-09-19T01:40:22.006Z,84.21
2023-09-19T01:41:36.795Z,83.67
2023-09-19T01:42:41.114Z,83.48
2023-09-19T01:43:44.781Z,83.32
2023-09-19T01:44:49.331Z,83.00
2023-09-19T01:46:14.705Z,82.81
2023-09-19T01:47:39.230Z,82.79
2023-09-19T01:48:51.640Z,82.68
2023-09-19T01:50:08.048Z,82.69
2023-09-19T01:51:17.998Z,82.50
2023-09-19T01:52:23.144Z,82.38
2023-09-19T01:53:32.199Z,82.66
2023-09-19T01:54:49.418Z,82.64
2023-09-19T01:55:52.845Z,82.39
2023-09-19T01:57:15.635Z,82.34
2023-09-19T01:58:31.061Z,82.32
2023-09-19T01:59:55.472Z,82.30
2023-09-19T02:00:59.688Z,82.04
2023-09-19T02:02:03.410Z,82.16
2023-09-19T02:03:05.588Z,82.04
2023-09-19T02:04:08.641Z,82.18
2023-09-19T02:05:11.029Z,82.27
2023-09-19T02:06:16.949Z,82.24
2023-09-19T02:07:18.693Z,82.33
2023-09-19T02:08:21.697Z,81.35
2023-09-19T02:09:23.258Z,80.76
2023-09-19T02:10:24.973Z,80.29
2023-09-19T02:11:26.598Z,80.01
2023-09-19T02:12:28.695Z,80.12
2023-09-19T02:13:32.018Z,80.22
2023-09-19T02:14:33.893Z,80.53
2023-09-19T02:15:37.064Z,79.88
2023-09-19T02:16:38.719Z,78.80
2023-09-19T02:17:40.918Z,78.27
2023-09-19T02:18:42.552Z,78.05
2023-09-19T02:19:44.152Z,78.31
2023-09-19T02:20:46.937Z,78.41
2023-09-19T02:21:49.854Z,78.67
2023-09-19T02:22:51.611Z,79.00
2023-09-19T02:23:53.323Z,79.14
2023-09-19T02:24:54.939Z,78.88
2023-09-19T02:26:01.579Z,78.71
2023-09-19T02:27:04.880Z,78.58
2023-09-19T02:28:06.762Z,78.17
2023-09-19T02:29:08.509Z,78.26
2023-09-19T02:30:10.559Z,78.18
2023-09-19T02:31:12.546Z,78.87
2023-09-19T02:32:14.291Z,79.73
2023-09-19T02:33:16.188Z,80.75
2023-09-19T02:34:17.932Z,81.08
2023-09-19T02:35:20.894Z,81.10
2023-09-19T02:36:22.617Z,81.22
2023-09-19T02:37:24.267Z,81.23
2023-09-19T02:38:27.089Z,81.10
2023-09-19T02:39:29.832Z,80.55
2023-09-19T02:40:31.427Z,80.56
2023-09-19T02:41:34.130Z,80.20
2023-09-19T02:42:35.726Z,80.21
2023-09-19T02:43:37.698Z,80.53
2023-09-19T02:44:39.390Z,80.65
2023-09-19T02:45:40.945Z,81.32
2023-09-19T02:46:43.450Z,81.83
2023-09-19T02:47:48.731Z,82.11
2023-09-19T02:48:50.436Z,81.93
2023-09-19T02:49:52.033Z,81.96
2023-09-19T02:50:53.704Z,82.44
2023-09-19T02:51:55.781Z,81.86
2023-09-19T02:52:57.416Z,81.58
2023-09-19T02:54:00.849Z,81.71
2023-09-19T02:55:02.662Z,81.92
2023-09-19T02:56:05.278Z,82.81
2023-09-19T02:57:07.836Z,82.38
2023-09-19T02:58:12.071Z,81.69
2023-09-19T02:59:14.027Z,81.30
2023-09-19T03:00:17.246Z,80.99
2023-09-19T03:01:19.762Z,81.02
2023-09-19T03:02:23.009Z,80.93
2023-09-19T03:03:24.662Z,80.63
2023-09-19T03:04:28.044Z,81.54
2023-09-19T03:05:32.877Z,82.01
2023-09-19T03:06:34.433Z,82.27
2023-09-19T03:07:36.144Z,82.46
2023-09-19T03:08:41.072Z,82.18
2023-09-19T03:09:43.661Z,82.08
2023-09-19T03:10:47.831Z,82.11
2023-09-19T03:11:49.480Z,83.01
2023-09-19T03:12:51.662Z,84.43
2023-09-19T03:13:54.086Z,85.54
2023-09-19T03:14:56.608Z,86.47
2023-09-19T03:15:59.445Z,87.17
2023-09-19T03:17:01.155Z,87.16
2023-09-19T03:18:02.925Z,87.83
2023-09-19T03:19:04.652Z,87.70
2023-09-19T03:20:09.654Z,87.31
2023-09-19T03:21:12.330Z,87.69
2023-09-19T03:22:15.995Z,88.47
2023-09-19T03:23:18.500Z,90.22
2023-09-19T03:24:20.856Z,90.45
2023-09-19T03:25:23.989Z,90.49
2023-09-19T03:26:27.509Z,89.61
2023-09-19T03:27:29.198Z,89.36
2023-09-19T03:28:30.869Z,89.03
2023-09-19T03:29:35.227Z,88.83
2023-09-19T03:30:37.245Z,87.91
2023-09-19T03:31:39.276Z,86.65
2023-09-19T03:32:51.383Z,85.94
2023-09-19T03:33:53.424Z,85.61
2023-09-19T03:34:55.561Z,85.67
2023-09-19T03:35:59.477Z,85.49
2023-09-19T03:37:01.112Z,86.12
2023-09-19T03:38:02.749Z,85.66
2023-09-19T03:39:06.273Z,85.88
2023-09-19T03:40:09.280Z,85.78
2023-09-19T03:41:10.880Z,85.46
2023-09-19T03:42:12.827Z,84.50
2023-09-19T03:43:14.447Z,84.26
2023-09-19T03:44:16.364Z,83.86
2023-09-19T03:45:19.434Z,83.82
2023-09-19T03:46:21.132Z,83.89
2023-09-19T03:47:22.932Z,83.87
2023-09-19T03:48:24.716Z,85.20
2023-09-19T03:49:26.383Z,85.36
2023-09-19T03:50:27.917Z,85.26
2023-09-19T03:51:29.549Z,85.07
2023-09-19T03:52:31.182Z,85.05
2023-09-19T03:53:32.848Z,84.45
2023-09-19T03:54:34.461Z,84.34
2023-09-19T03:55:39.994Z,84.35
2023-09-19T03:56:41.905Z,84.32
2023-09-19T03:57:43.506Z,85.76
2023-09-19T03:58:45.844Z,87.42
2023-09-19T03:59:48.411Z,89.43
2023-09-19T04:00:51.529Z,89.99
2023-09-19T04:01:57.175Z,91.00
2023-09-19T04:02:58.899Z,91.71
2023-09-19T04:04:09.055Z,92.49
2023-09-19T04:05:11.998Z,92.21
2023-09-19T04:06:17.335Z,92.42
2023-09-19T04:07:23.813Z,93.13
2023-09-19T04:08:25.597Z,93.22
2023-09-19T04:09:27.233Z,93.12
2023-09-19T04:10:29.609Z,94.16
2023-09-19T04:11:32.229Z,95.44
2023-09-19T04:12:34.015Z,99.47
2023-09-19T04:13:35.953Z,99.25
2023-09-19T04:14:37.588Z,98.42
2023-09-19T04:15:39.196Z,96.98
2023-09-19T04:16:40.897Z,96.63
2023-09-19T04:17:42.605Z,95.59
2023-09-19T04:18:44.382Z,95.50
2023-09-19T04:19:46.925Z,95.43
2023-09-19T04:20:50.649Z,95.00
2023-09-19T04:21:52.219Z,94.31
2023-09-19T04:22:53.941Z,93.75
2023-09-19T04:23:55.598Z,92.39
2023-09-19T04:24:57.836Z,91.40
2023-09-19T04:25:59.888Z,91.26
2023-09-19T04:27:01.494Z,90.61
2023-09-19T04:28:05.559Z,91.24
2023-09-19T04:29:07.712Z,90.98
2023-09-19T04:30:12.949Z,90.87
2023-09-19T04:31:15.785Z,90.90
2023-09-19T04:32:18.762Z,90.85
2023-09-19T04:33:20.500Z,91.16
2023-09-19T04:34:22.130Z,91.60
2023-09-19T04:35:23.799Z,91.05
2023-09-19T04:36:35.110Z,90.96
2023-09-19T04:37:40.044Z,90.59
2023-09-19T04:38:41.886Z,90.07
2023-09-19T04:39:43.654Z,89.76
2023-09-19T04:40:45.253Z,89.11
2023-09-19T04:41:49.164Z,88.65
2023-09-19T04:43:00.896Z,88.42
2023-09-19T04:44:02.547Z,88.13
2023-09-19T04:45:04.658Z,88.71
2023-09-19T04:46:08.102Z,88.27
2023-09-19T04:47:09.846Z,87.92
2023-09-19T04:48:12.037Z,87.59
2023-09-19T04:49:14.035Z,87.45
2023-09-19T04:50:15.962Z,86.73
2023-09-19T04:51:17.615Z,86.53
2023-09-19T04:52:20.246Z,86.88
2023-09-19T04:53:22.622Z,87.37
2023-09-19T04:54:24.218Z,87.87
2023-09-19T04:55:25.858Z,88.07
2023-09-19T04:56:29.629Z,87.96
2023-09-19T04:57:32.586Z,88.29
2023-09-19T04:58:35.118Z,89.05
2023-09-19T04:59:37.464Z,89.49
2023-09-19T05:00:39.018Z,89.64
2023-09-19T05:01:40.710Z,89.24
2023-09-19T05:02:43.485Z,88.76
2023-09-19T05:03:46.381Z,88.83
2023-09-19T05:04:48.448Z,88.15
2023-09-19T05:05:50.087Z,88.08
2023-09-19T05:06:52.018Z,87.53
2023-09-19T05:07:55.421Z,87.85
2023-09-19T05:08:57.349Z,87.16
2023-09-19T05:09:58.875Z,87.12
2023-09-19T05:11:03.509Z,87.58
2023-09-19T05:12:06.050Z,86.95
2023-09-19T05:13:08.937Z,86.98
2023-09-19T05:14:10.517Z,87.10
2023-09-19T05:15:12.459Z,86.60
2023-09-19T05:16:14.732Z,86.32
2023-09-19T05:17:18.279Z,86.23
2023-09-19T05:18:20.023Z,86.14
2023-09-19T05:19:21.622Z,86.20
2023-09-19T05:20:34.581Z,86.52
2023-09-19T05:21:36.149Z,86.40
2023-09-19T05:22:40.875Z,86.17
2023-09-19T05:23:43.426Z,85.91
2023-09-19T05:24:49.177Z,85.75
2023-09-19T05:25:52.365Z,85.52
2023-09-19T05:26:54.060Z,85.99
2023-09-19T05:27:56.048Z,86.59
2023-09-19T05:28:57.952Z,87.00
2023-09-19T05:29:59.522Z,88.54
2023-09-19T05:31:04.210Z,90.75
2023-09-19T05:32:07.924Z,91.26
2023-09-19T05:33:10.103Z,91.22
2023-09-19T05:34:12.272Z,91.28
2023-09-19T05:35:14.358Z,90.73
2023-09-19T05:36:18.073Z,90.65
2023-09-19T05:37:19.965Z,90.28
2023-09-19T05:38:21.979Z,89.61
2023-09-19T05:39:24.025Z,89.27
2023-09-19T05:40:26.642Z,89.60
2023-09-19T05:41:28.324Z,89.84
2023-09-19T05:42:29.857Z,90.05
2023-09-19T05:43:31.655Z,89.91
2023-09-19T05:44:34.592Z,90.07
2023-09-19T05:45:37.726Z,90.88
2023-09-19T05:46:40.031Z,90.88
2023-09-19T05:47:46.878Z,90.93
2023-09-19T05:48:48.905Z,90.66
2023-09-19T05:49:51.922Z,90.22
2023-09-19T05:50:53.563Z,88.84
2023-09-19T05:51:57.367Z,88.55
2023-09-19T05:52:59.300Z,88.90
2023-09-19T05:54:00.879Z,87.75
2023-09-19T05:55:02.502Z,88.34
2023-09-19T05:56:04.191Z,89.45
2023-09-19T05:57:05.840Z,89.58
2023-09-19T05:58:07.612Z,89.83
2023-09-19T05:59:10.014Z,91.46
2023-09-19T06:00:12.517Z,92.06
2023-09-19T06:01:14.428Z,91.90
2023-09-19T06:02:16.462Z,92.49
2023-09-19T06:03:20.163Z,92.10
2023-09-19T06:04:22.631Z,90.38
2023-09-19T06:05:25.790Z,89.99
2023-09-19T06:06:27.568Z,91.05
2023-09-19T06:07:37.392Z,91.35
2023-09-19T06:08:38.989Z,91.77
2023-09-19T06:09:40.574Z,92.84
2023-09-19T06:10:42.167Z,92.28
2023-09-19T06:11:44.227Z,92.98
2023-09-19T06:12:46.300Z,92.09
2023-09-19T06:13:48.680Z,91.66
2023-09-19T06:14:50.470Z,90.74
2023-09-19T06:15:52.669Z,90.91
2023-09-19T06:16:55.471Z,90.07
2023-09-19T06:17:57.927Z,89.58
2023-09-19T06:19:02.616Z,89.28
2023-09-19T06:20:10.983Z,88.91
2023-09-19T06:21:13.299Z,88.80
2023-09-19T06:22:19.919Z,89.27
2023-09-19T06:23:22.365Z,88.28
2023-09-19T06:24:24.016Z,88.03
2023-09-19T06:25:25.709Z,87.23
2023-09-19T06:26:28.252Z,87.49
2023-09-19T06:27:30.409Z,85.95
2023-09-19T06:28:32.148Z,85.00
2023-09-19T06:29:35.153Z,84.54
2023-09-19T06:30:37.230Z,84.77
2023-09-19T06:31:40.588Z,84.07
2023-09-19T06:32:45.692Z,83.63
2023-09-19T06:33:47.321Z,81.64
2023-09-19T06:34:55.564Z,80.10
2023-09-19T06:36:00.443Z,80.71
2023-09-19T06:37:02.268Z,79.75
2023-09-19T06:38:05.190Z,78.51
2023-09-19T06:39:07.544Z,78.67
2023-09-19T06:40:18.551Z,78.29
2023-09-19T06:41:20.585Z,76.19
2023-09-19T06:42:23.901Z,76.29
2023-09-19T06:43:25.649Z,74.98
2023-09-19T06:44:27.238Z,74.10
2023-09-19T06:45:29.068Z,73.38
2023-09-19T06:46:34.168Z,72.84
2023-09-19T06:47:35.840Z,71.50
2023-09-19T06:48:38.131Z,70.88
2023-09-19T06:49:39.726Z,69.94
2023-09-19T06:50:42.417Z,69.68
2023-09-19T06:51:44.991Z,68.71
2023-09-19T06:52:49.174Z,69.44
2023-09-19T06:53:50.895Z,69.28
2023-09-19T06:54:53.651Z,70.39
2023-09-19T06:55:55.538Z,70.74
2023-09-19T06:56:57.254Z,70.01
2023-09-19T06:57:59.874Z,70.54
2023-09-19T06:59:03.463Z,70.74
2023-09-19T07:00:10.581Z,69.77
2023-09-19T07:01:12.178Z,69.59
2023-09-19T07:02:15.005Z,69.98
2023-09-19T07:03:19.963Z,69.33
2023-09-19T07:04:21.795Z,69.11
2023-09-19T07:05:23.524Z,69.25
2023-09-19T07:06:25.440Z,70.15
2023-09-19T07:07:27.150Z,69.77
2023-09-19T07:08:29.382Z,69.59
2023-09-19T07:09:30.974Z,70.51
2023-09-19T07:10:33.552Z,68.54
2023-09-19T07:11:35.881Z,69.11
2023-09-19T07:12:37.657Z,69.21
2023-09-19T07:13:40.676Z,68.04
2023-09-19T07:14:42.390Z,67.57
2023-09-19T07:15:48.535Z,67.56
2023-09-19T07:16:50.565Z,67.27
2023-09-19T07:17:57.419Z,67.75
2023-09-19T07:18:59.512Z,67.42
2023-09-19T07:20:01.292Z,67.53
2023-09-19T07:21:05.808Z,67.49
2023-09-19T07:22:09.058Z,66.82
2023-09-19T07:23:10.678Z,66.79
2023-09-19T07:24:12.290Z,65.96
2023-09-19T07:25:15.197Z,65.03
2023-09-19T07:26:17.482Z,67.19
2023-09-19T07:27:19.494Z,67.84
2023-09-19T07:28:21.187Z,66.48
2023-09-19T07:29:22.888Z,66.01
2023-09-19T07:30:24.544Z,65.29
2023-09-19T07:31:26.528Z,64.11
2023-09-19T07:32:28.347Z,64.06
2023-09-19T07:33:30.111Z,64.09
2023-09-19T07:34:31.651Z,64.47
2023-09-19T07:35:34.076Z,64.22
2023-09-19T07:36:38.339Z,63.95
2023-09-19T07:37:40.074Z,64.31
2023-09-19T07:38:42.174Z,64.32
2023-09-19T07:39:45.961Z,63.51
2023-09-19T07:40:47.974Z,64.15
2023-09-19T07:41:50.837Z,63.59
2023-09-19T07:42:53.328Z,61.99
2023-09-19T07:43:54.985Z,63.98
2023-09-19T07:44:56.566Z,62.78
2023-09-19T07:45:58.611Z,63.72
2023-09-19T07:47:00.256Z,63.30
2023-09-19T07:48:05.364Z,62.99
2023-09-19T07:49:07.272Z,62.36
2023-09-19T07:50:09.047Z,61.35
2023-09-19T07:51:10.676Z,60.85
2023-09-19T07:52:13.322Z,61.44
2023-09-19T07:53:14.951Z,61.93
2023-09-19T07:54:17.661Z,62.46
2023-09-19T07:55:21.173Z,62.21
2023-09-19T07:56:23.826Z,63.13
2023-09-19T07:57:26.076Z,62.72
2023-09-19T07:58:27.751Z,62.02
2023-09-19T07:59:29.425Z,60.67
2023-09-19T08:00:31.357Z,60.35
2023-09-19T08:01:34.212Z,59.48
2023-09-19T08:02:39.413Z,59.22
2023-09-19T08:03:45.082Z,58.83
2023-09-19T08:04:47.087Z,57.55
2023-09-19T08:05:49.704Z,58.37
2023-09-19T08:06:53.119Z,58.26
2023-09-19T08:07:57.667Z,58.13
2023-09-19T08:09:01.878Z,57.16
2023-09-19T08:10:14.536Z,57.33
2023-09-19T08:11:22.281Z,58.84
2023-09-19T08:12:24.036Z,57.95
2023-09-19T08:13:26.905Z,57.39
2023-09-19T08:14:28.454Z,56.53
2023-09-19T08:15:30.047Z,57.30
2023-09-19T08:16:31.760Z,57.27
2023-09-19T08:17:36.683Z,57.26
2023-09-19T08:18:41.561Z,56.15
2023-09-19T08:19:45.943Z,56.27
2023-09-19T08:20:53.518Z,56.26
2023-09-19T08:22:02.447Z,56.55
2023-09-19T08:23:04.916Z,55.51
2023-09-19T08:24:07.131Z,55.06
2023-09-19T08:25:08.764Z,55.40
2023-09-19T08:26:10.366Z,55.49
2023-09-19T08:27:13.571Z,55.21
2023-09-19T08:28:19.953Z,55.47
2023-09-19T08:29:21.741Z,55.59
2023-09-19T08:30:28.571Z,55.07
2023-09-19T08:31:30.862Z,55.13
2023-09-19T08:32:32.659Z,54.88
2023-09-19T08:33:37.058Z,55.68
2023-09-19T08:34:39.950Z,54.54
2023-09-19T08:35:44.040Z,54.59
2023-09-19T08:36:46.546Z,54.66
2023-09-19T08:37:48.284Z,54.50
2023-09-19T08:38:50.700Z,54.44
2023-09-19T08:39:52.351Z,55.72
2023-09-19T08:40:53.989Z,54.27
2023-09-19T08:42:00.272Z,55.29
2023-09-19T08:43:01.978Z,55.81
2023-09-19T08:44:05.424Z,54.84
2023-09-19T08:45:09.521Z,54.50
2023-09-19T08:46:20.256Z,54.14
2023-09-19T08:47:36.623Z,55.22
2023-09-19T08:48:45.487Z,54.88
2023-09-19T08:49:59.426Z,55.39
2023-09-19T08:51:20.147Z,55.05
2023-09-19T08:52:27.491Z,54.84
2023-09-19T08:53:33.104Z,54.86
2023-09-19T08:54:42.031Z,55.14
2023-09-19T08:55:45.392Z,55.41
2023-09-19T08:56:49.010Z,54.95
2023-09-19T08:57:53.540Z,54.72
2023-09-19T08:59:00.582Z,54.33
2023-09-19T09:00:06.592Z,54.06
2023-09-19T09:01:09.970Z,54.98
2023-09-19T09:02:13.590Z,54.18
2023-09-19T09:03:16.206Z,54.16
2023-09-19T09:04:17.916Z,53.98
2023-09-19T09:05:24.256Z,54.26
2023-09-19T09:06:29.223Z,52.92
2023-09-19T09:07:31.147Z,53.65
2023-09-19T09:08:33.160Z,53.61
2023-09-19T09:09:35.316Z,56.06
2023-09-19T09:10:37.510Z,54.55
2023-09-19T09:11:41.070Z,54.17
2023-09-19T09:12:45.070Z,54.01
2023-09-19T09:13:47.263Z,52.49
2023-09-19T09:14:53.498Z,54.03
2023-09-19T09:15:55.683Z,53.61
2023-09-19T09:17:00.078Z,53.69
2023-09-19T09:18:01.840Z,52.49
2023-09-19T09:19:03.524Z,52.04
2023-09-19T09:20:11.057Z,53.35
2023-09-19T09:21:15.765Z,54.68
2023-09-19T09:22:17.822Z,56.06
2023-09-19T09:23:19.762Z,56.94
2023-09-19T09:24:34.771Z,56.50
2023-09-19T09:25:56.288Z,55.93
2023-09-19T09:26:59.196Z,56.84
2023-09-19T09:28:02.696Z,56.45
2023-09-19T09:29:04.665Z,55.26
2023-09-19T09:30:08.333Z,55.21
2023-09-19T09:31:24.028Z,55.35
2023-09-19T09:32:38.825Z,55.75
2023-09-19T09:33:42.887Z,55.08
2023-09-19T09:34:45.255Z,55.41
2023-09-19T09:35:59.167Z,55.14
2023-09-19T09:37:01.050Z,55.21
2023-09-19T09:38:09.410Z,55.62
2023-09-19T09:39:25.798Z,57.02
2023-09-19T09:40:48.383Z,56.00
2023-09-19T09:41:50.052Z,55.58
2023-09-19T09:42:54.333Z,55.38
2023-09-19T09:43:55.963Z,55.68
2023-09-19T09:45:14.007Z,56.12
2023-09-19T09:46:23.596Z,57.86
2023-09-19T09:47:51.297Z,58.30
2023-09-19T09:49:15.598Z,55.31
2023-09-19T09:50:56.718Z,57.45
2023-09-19T09:52:11.987Z,55.94
2023-09-19T09:53:28.655Z,55.64
2023-09-19T09:54:42.848Z,54.55
2023-09-19T09:56:03.208Z,55.68
2023-09-19T09:57:22.638Z,56.44
2023-09-19T09:58:30.075Z,56.44
2023-09-19T09:59:52.252Z,54.91
2023-09-19T10:01:03.935Z,53.89
2023-09-19T10:02:05.794Z,54.68
2023-09-19T10:03:23.059Z,55.53
2023-09-19T10:04:37.587Z,55.54
2023-09-19T10:05:45.832Z,54.62
2023-09-19T10:06:52.559Z,55.84
2023-09-19T10:07:55.787Z,55.86
2023-09-19T10:09:21.809Z,55.94
2023-09-19T10:10:44.068Z,54.79
2023-09-19T10:11:49.179Z,54.42
2023-09-19T10:12:57.306Z,54.68
2023-09-19T10:14:07.761Z,55.41
2023-09-19T10:15:12.259Z,53.82
2023-09-19T10:16:15.664Z,52.88
2023-09-19T10:17:21.515Z,53.57
2023-09-19T10:18:25.132Z,52.25
2023-09-19T10:19:59.233Z,52.43
2023-09-19T10:21:05.166Z,52.70
2023-09-19T10:22:10.070Z,52.47
2023-09-19T10:23:13.663Z,52.74
2023-09-19T10:24:17.330Z,54.67
2023-09-19T10:25:23.781Z,53.44
2023-09-19T10:26:27.168Z,54.11
2023-09-19T10:27:30.870Z,55.73
2023-09-19T10:28:33.546Z,53.76
2023-09-19T10:29:37.388Z,53.37
2023-09-19T10:30:44.782Z,52.90
2023-09-19T10:31:49.196Z,53.29
2023-09-19T10:33:18.011Z,54.50
2023-09-19T10:34:21.696Z,54.59
2023-09-19T10:35:25.135Z,53.36
2023-09-19T10:36:28.854Z,54.03
2023-09-19T10:37:33.635Z,55.06
2023-09-19T10:38:36.874Z,53.77
2023-09-19T10:39:42.084Z,53.56
2023-09-19T10:40:45.332Z,52.23
2023-09-19T10:41:59.852Z,51.56
2023-09-19T10:43:09.238Z,51.75
2023-09-19T10:44:10.990Z,51.64
2023-09-19T10:45:16.670Z,53.72
2023-09-19T10:46:18.855Z,52.57
2023-09-19T10:47:21.693Z,52.37
2023-09-19T10:48:37.609Z,51.87
2023-09-19T10:49:49.773Z,50.95
2023-09-19T10:51:14.358Z,50.79
2023-09-19T10:52:22.145Z,48.78
2023-09-19T10:53:24.400Z,49.53
2023-09-19T10:54:29.394Z,49.74
2023-09-19T10:55:32.760Z,49.24
2023-09-19T10:56:38.699Z,49.46
2023-09-19T10:57:45.836Z,51.08
2023-09-19T10:58:47.652Z,51.25
2023-09-19T11:00:27.115Z,51.47
2023-09-19T11:01:42.902Z,50.26
2023-09-19T11:02:45.074Z,48.83
2023-09-19T11:03:50.763Z,50.01
2023-09-19T11:04:52.551Z,50.17
2023-09-19T11:06:10.679Z,49.95
2023-09-19T11:07:16.067Z,48.88
2023-09-19T11:08:17.833Z,47.76
2023-09-19T11:09:23.607Z,48.61
2023-09-19T11:10:52.490Z,47.97
2023-09-19T11:11:54.956Z,49.15
2023-09-19T11:12:57.506Z,49.13
2023-09-19T11:14:30.721Z,47.68
2023-09-19T11:16:02.037Z,49.39
2023-09-19T11:17:06.738Z,46.90
2023-09-19T11:18:44.019Z,46.98
2023-09-19T11:20:15.758Z,47.35
2023-09-19T11:21:34.861Z,47.60
2023-09-19T11:22:51.956Z,47.13
2023-09-19T11:24:11.770Z,47.89
2023-09-19T11:25:32.131Z,47.73
2023-09-19T11:26:48.573Z,47.55
2023-09-19T11:28:09.904Z,45.23
2023-09-19T11:29:27.516Z,45.11
2023-09-19T11:30:31.527Z,45.58
2023-09-19T11:31:45.431Z,46.63
2023-09-19T11:33:25.263Z,47.73
2023-09-19T11:34:42.894Z,46.15
2023-09-19T11:36:01.071Z,46.42
2023-09-19T11:37:05.494Z,46.94
2023-09-19T11:38:07.945Z,47.55
2023-09-19T11:39:26.441Z,46.87
2023-09-19T11:40:29.440Z,48.85
2023-09-19T11:41:41.497Z,46.33
2023-09-19T11:42:55.278Z,44.93
2023-09-19T11:44:01.576Z,44.68
2023-09-19T11:45:03.315Z,44.91
2023-09-19T11:46:06.279Z,47.25
2023-09-19T11:47:11.169Z,46.79
2023-09-19T11:48:16.980Z,46.03
2023-09-19T11:49:22.555Z,46.88
2023-09-19T11:50:25.209Z,45.42
2023-09-19T11:51:30.396Z,47.01
2023-09-19T11:52:38.181Z,46.72
2023-09-19T11:53:42.888Z,45.54
2023-09-19T11:54:46.712Z,46.00
2023-09-19T11:55:48.907Z,47.25
2023-09-19T11:56:57.970Z,47.08
2023-09-19T11:58:00.353Z,46.34
2023-09-19T11:59:02.063Z,46.69
2023-09-19T12:00:05.890Z,45.83
2023-09-19T12:01:14.086Z,45.24
2023-09-19T12:02:37.065Z,45.38
2023-09-19T12:03:43.079Z,46.07
2023-09-19T12:04:49.287Z,43.00
2023-09-19T12:05:50.995Z,43.39
2023-09-19T12:07:01.582Z,46.48
2023-09-19T12:08:06.042Z,46.00
2023-09-19T12:09:17.343Z,47.39
2023-09-19T12:10:21.751Z,46.68
2023-09-19T12:11:24.411Z,43.70
2023-09-19T12:12:29.138Z,43.39
2023-09-19T12:13:32.787Z,44.04
2023-09-19T12:14:34.939Z,43.72
2023-09-19T12:15:39.852Z,43.36
2023-09-19T12:16:43.286Z,43.10
2023-09-19T12:17:45.866Z,44.91
2023-09-19T12:18:48.280Z,43.12
2023-09-19T12:19:57.209Z,43.55
2023-09-19T12:20:59.396Z,45.41
2023-09-19T12:22:05.767Z,45.08
2023-09-19T12:23:14.771Z,45.76
2023-09-19T12:24:17.510Z,45.55
2023-09-19T12:25:21.240Z,45.91
2023-09-19T12:26:25.358Z,46.59
2023-09-19T12:27:28.186Z,45.36
2023-09-19T12:28:33.475Z,46.01
2023-09-19T12:29:50.204Z,45.09
2023-09-19T12:30:52.489Z,46.09
2023-09-19T12:31:59.216Z,45.86
2023-09-19T12:33:00.970Z,46.76
2023-09-19T12:34:03.281Z,45.19
2023-09-19T12:35:11.734Z,44.08
2023-09-19T12:36:31.925Z,46.29
2023-09-19T12:37:37.307Z,44.51
2023-09-19T12:38:38.997Z,44.82
2023-09-19T12:39:42.294Z,46.49
2023-09-19T12:40:44.799Z,44.90
2023-09-19T12:41:48.637Z,45.56
2023-09-19T12:42:51.194Z,45.44
2023-09-19T12:43:55.568Z,45.43
2023-09-19T12:44:58.457Z,43.80
2023-09-19T12:46:01.114Z,43.34
2023-09-19T12:47:13.030Z,42.91
2023-09-19T12:48:32.811Z,44.08
2023-09-19T12:49:34.680Z,42.91
2023-09-19T12:50:36.385Z,42.99
2023-09-19T12:51:38.122Z,43.00
2023-09-19T12:52:41.757Z,43.27
2023-09-19T12:53:46.357Z,43.52
2023-09-19T12:54:48.640Z,43.57
2023-09-19T12:55:59.876Z,43.47
2023-09-19T12:57:01.500Z,44.17
2023-09-19T12:58:20.349Z,44.30
2023-09-19T12:59:32.074Z,45.50
2023-09-19T13:00:39.321Z,44.31
2023-09-19T13:01:49.470Z,44.58
2023-09-19T13:03:24.209Z,43.47
2023-09-19T13:04:30.761Z,43.17
2023-09-19T13:05:51.817Z,43.30
2023-09-19T13:06:54.071Z,43.42
2023-09-19T13:07:55.991Z,42.84
2023-09-19T13:09:13.041Z,43.61
2023-09-19T13:10:17.633Z,42.43
2023-09-19T13:11:19.878Z,42.72
2023-09-19T13:12:38.674Z,43.58
2023-09-19T13:13:51.103Z,43.60
2023-09-19T13:15:12.500Z,43.44
2023-09-19T13:16:23.566Z,44.14
2023-09-19T13:17:25.406Z,43.21
2023-09-19T13:18:28.104Z,43.98
2023-09-19T13:19:49.933Z,45.35
2023-09-19T13:21:23.313Z,45.83
2023-09-19T13:22:44.033Z,45.04
2023-09-19T13:23:46.102Z,45.89
2023-09-19T13:24:52.436Z,46.08
2023-09-19T13:25:54.000Z,46.33
2023-09-19T13:26:56.288Z,46.57
2023-09-19T13:27:58.916Z,45.68
2023-09-19T13:29:00.528Z,46.32
2023-09-19T13:30:02.162Z,45.79
2023-09-19T13:31:03.858Z,46.32
2023-09-19T13:32:05.962Z,45.87
2023-09-19T13:33:12.718Z,44.63
2023-09-19T13:34:16.875Z,44.92
2023-09-19T13:35:19.036Z,46.19
2023-09-19T13:36:20.876Z,45.60
2023-09-19T13:37:23.235Z,45.95
2023-09-19T13:38:24.975Z,44.29
2023-09-19T13:39:26.527Z,44.75
2023-09-19T13:40:31.937Z,44.64
2023-09-19T13:41:33.794Z,46.02
2023-09-19T13:42:37.487Z,44.87
2023-09-19T13:43:39.899Z,44.50
2023-09-19T13:44:44.600Z,43.71
2023-09-19T13:45:46.157Z,44.15
2023-09-19T13:46:48.389Z,44.72
2023-09-19T13:47:50.363Z,45.00
2023-09-19T13:48:55.807Z,45.55
2023-09-19T13:49:58.214Z,45.57
2023-09-19T13:50:59.801Z,44.77
2023-09-19T13:52:04.375Z,44.83
2023-09-19T13:53:06.030Z,44.71
2023-09-19T13:54:07.724Z,45.03
2023-09-19T13:55:09.832Z,45.19
2023-09-19T13:56:12.277Z,45.09
2023-09-19T13:57:14.086Z,45.51
2023-09-19T13:58:16.160Z,44.68
2023-09-19T13:59:17.752Z,45.34
2023-09-19T14:00:19.500Z,45.31
2023-09-19T14:01:21.585Z,45.27
2023-09-19T14:02:26.689Z,44.95